Time;durP1;ratioP1;P1;durP2;ratioP2;P2;SDS_P1;SDS_P2;PMS_P1;PMS_P2;Temp;Humidity;BMP_temperature;BMP_pressure;BME280_temperature;BME280_humidity;BME280_pressure;Samples;Min_cycle;Max_cycle;Signal;HPM_P1;HPM_P2
2022/04/08 00:01:57;;;;;;;3.23;1.27;;;11.40;54.40;;;;;;959810;146;27410;-74
2022/04/08 00:04:24;;;;;;;2.70;1.30;;;11.30;53.80;;;;;;977123;143;27319;-74
2022/04/08 00:06:50;;;;;;;2.70;1.50;;;11.30;54.50;;;;;;978341;143;27341;-75
2022/04/08 00:09:17;;;;;;;2.83;1.40;;;11.30;54.50;;;;;;981056;143;27314;-76
2022/04/08 00:11:43;;;;;;;5.90;1.60;;;11.30;54.50;;;;;;964069;146;27376;-76
2022/04/08 00:14:10;;;;;;;3.33;1.57;;;11.30;54.60;;;;;;976605;143;27397;-75
2022/04/08 00:16:37;;;;;;;2.90;1.37;;;11.30;54.70;;;;;;961240;144;27221;-75
2022/04/08 00:19:03;;;;;;;2.60;1.30;;;11.30;54.70;;;;;;961543;146;27327;-75
2022/04/08 00:21:30;;;;;;;1.70;1.20;;;11.20;54.80;;;;;;978375;143;27280;-74
2022/04/08 00:23:56;;;;;;;8.37;1.70;;;11.20;54.80;;;;;;966525;145;27256;-75
2022/04/08 00:26:23;;;;;;;3.77;1.40;;;11.20;54.90;;;;;;962072;146;27348;-74
2022/04/08 00:28:49;;;;;;;3.07;1.47;;;11.20;54.90;;;;;;966628;146;27410;-75
2022/04/08 00:31:16;;;;;;;4.47;1.47;;;11.20;55.00;;;;;;983657;142;27412;-75
2022/04/08 00:33:43;;;;;;;3.70;1.43;;;11.10;55.00;;;;;;965945;146;27251;-75
2022/04/08 00:36:09;;;;;;;2.63;1.63;;;11.10;55.00;;;;;;960325;146;27347;-75
2022/04/08 00:38:36;;;;;;;3.67;1.13;;;11.10;55.00;;;;;;963259;146;27289;-75
2022/04/08 00:41:02;;;;;;;5.90;1.63;;;11.10;55.10;;;;;;978828;143;27305;-74
2022/04/08 00:43:35;;;;;;;6.47;1.50;;;11.10;55.20;;;;;;960315;144;27307;-75
2022/04/08 00:46:04;;;;;;;2.67;1.23;;;11.10;55.20;;;;;;963256;146;27777;-75
2022/04/08 00:48:31;;;;;;;4.50;1.53;;;11.10;55.30;;;;;;981746;142;27323;-75
2022/04/08 00:50:58;;;;;;;1.90;1.00;;;11.00;55.30;;;;;;960010;146;27349;-75
2022/04/08 00:53:24;;;;;;;3.40;1.60;;;11.00;55.30;;;;;;960148;146;27427;-75
2022/04/08 00:55:51;;;;;;;4.40;1.37;;;11.00;55.40;;;;;;960401;145;27337;-75
2022/04/08 00:58:17;;;;;;;3.90;1.40;;;11.00;55.50;;;;;;959790;146;27369;-75
2022/04/08 01:00:44;;;;;;;2.60;1.20;;;11.00;55.50;;;;;;960281;146;27349;-75
2022/04/08 01:03:11;;;;;;;5.30;1.43;;;11.00;55.60;;;;;;961259;146;27343;-76
2022/04/08 01:05:37;;;;;;;5.87;1.93;;;10.90;55.70;;;;;;981552;142;27362;-75
2022/04/08 01:08:04;;;;;;;7.83;1.70;;;10.90;55.70;;;;;;974016;145;27340;-75
2022/04/08 01:10:30;;;;;;;4.50;1.47;;;10.90;55.80;;;;;;963275;145;27301;-75
2022/04/08 01:12:57;;;;;;;4.10;1.37;;;10.90;55.80;;;;;;978777;144;27287;-75
2022/04/08 01:15:25;;;;;;;2.73;1.60;;;10.90;55.90;;;;;;964330;145;27383;-75
2022/04/08 01:17:50;;;;;;;3.50;1.37;;;10.90;55.90;;;;;;966974;145;27324;-75
2022/04/08 01:20:17;;;;;;;4.40;1.70;;;10.90;56.00;;;;;;986859;142;27433;-75
2022/04/08 01:22:43;;;;;;;5.37;1.40;;;10.90;56.00;;;;;;971028;145;27737;-75
2022/04/08 01:25:10;;;;;;;5.43;1.77;;;10.90;56.00;;;;;;981815;142;27331;-75
2022/04/08 01:27:36;;;;;;;4.93;1.53;;;10.90;56.10;;;;;;984378;142;27297;-75
2022/04/08 01:30:03;;;;;;;3.77;1.63;;;10.90;56.10;;;;;;983963;142;27630;-75
2022/04/08 01:32:30;;;;;;;4.37;1.67;;;10.90;56.20;;;;;;981709;142;27464;-75
2022/04/08 01:34:56;;;;;;;5.73;1.67;;;10.90;56.20;;;;;;982507;142;27335;-75
2022/04/08 01:37:23;;;;;;;4.63;1.50;;;10.90;56.30;;;;;;963334;145;27380;-75
2022/04/08 01:39:49;;;;;;;4.43;1.60;;;10.80;56.30;;;;;;982249;142;27702;-75
2022/04/08 01:42:21;;;;;;;3.93;1.90;;;10.90;56.50;;;;;;988644;142;27345;-75
2022/04/08 01:44:44;;;;;;;5.37;1.80;;;10.90;56.60;;;;;;967115;144;27445;-75
2022/04/08 01:47:09;;;;;;;3.40;1.60;;;10.90;56.70;;;;;;964931;145;27334;-75
2022/04/08 01:49:36;;;;;;;5.83;2.17;;;10.90;56.80;;;;;;983588;142;27604;-75
2022/04/08 01:52:02;;;;;;;3.37;1.43;;;11.00;56.90;;;;;;966766;145;27406;-75
2022/04/08 01:54:29;;;;;;;3.07;1.30;;;11.00;56.90;;;;;;967239;145;27336;-75
2022/04/08 01:56:55;;;;;;;3.77;1.53;;;11.10;56.90;;;;;;978412;145;27348;-75
2022/04/08 01:59:22;;;;;;;3.50;1.30;;;11.10;56.30;;;;;;976804;145;27395;-75
2022/04/08 02:01:49;;;;;;;2.20;0.90;;;11.20;57.30;;;;;;985992;142;27282;-75
2022/04/08 02:04:16;;;;;;;3.20;1.13;;;11.20;57.40;;;;;;967478;145;27317;-75
2022/04/08 02:06:42;;;;;;;2.73;0.87;;;11.20;57.40;;;;;;957360;148;27358;-75
2022/04/08 02:09:08;;;;;;;3.10;1.17;;;11.20;57.50;;;;;;960308;148;27484;-75
2022/04/08 02:11:35;;;;;;;2.27;1.13;;;11.20;57.60;;;;;;960514;145;27357;-75
2022/04/08 02:14:02;;;;;;;2.63;1.23;;;11.10;57.70;;;;;;979926;145;27412;-75
2022/04/08 02:16:28;;;;;;;1.70;1.10;;;11.10;57.80;;;;;;962364;146;27249;-75
2022/04/08 02:18:55;;;;;;;2.40;0.97;;;11.00;57.90;;;;;;979360;145;27267;-75
2022/04/08 02:21:21;;;;;;;1.53;0.80;;;11.00;58.00;;;;;;961611;145;27357;-75
2022/04/08 02:23:48;;;;;;;1.70;1.30;;;10.90;58.10;;;;;;977119;145;27340;-75
2022/04/08 02:26:16;;;;;;;3.67;0.97;;;10.90;58.30;;;;;;977541;145;27317;-75
2022/04/08 02:28:41;;;;;;;2.63;1.00;;;10.80;58.30;;;;;;962385;148;27321;-75
2022/04/08 02:31:08;;;;;;;2.53;1.10;;;10.80;58.40;;;;;;961480;145;27309;-75
2022/04/08 02:33:34;;;;;;;3.07;1.63;;;10.70;58.50;;;;;;976510;145;27247;-75
2022/04/08 02:36:01;;;;;;;1.93;1.20;;;10.70;58.70;;;;;;977154;145;27338;-75
2022/04/08 02:38:27;;;;;;;2.00;0.90;;;10.70;58.90;;;;;;976220;145;27469;-75
2022/04/08 02:40:54;;;;;;;2.07;0.90;;;10.60;59.00;;;;;;958011;148;27283;-74
2022/04/08 02:43:22;;;;;;;2.60;1.30;;;10.60;59.20;;;;;;977172;146;27338;-74
2022/04/08 02:45:47;;;;;;;2.07;1.20;;;10.60;59.20;;;;;;973952;146;27261;-74
2022/04/08 02:48:14;;;;;;;1.67;0.93;;;10.60;59.30;;;;;;961185;148;27316;-74
2022/04/08 02:50:40;;;;;;;1.97;1.27;;;10.60;59.40;;;;;;965421;145;27313;-74
2022/04/08 02:53:07;;;;;;;2.40;1.17;;;10.60;59.40;;;;;;963473;148;27394;-74
2022/04/08 02:55:35;;;;;;;2.13;1.23;;;10.60;59.60;;;;;;963042;147;27393;-75
2022/04/08 02:58:00;;;;;;;1.63;0.73;;;10.60;59.60;;;;;;978733;145;27303;-74
2022/04/08 03:00:27;;;;;;;1.07;0.90;;;10.50;59.70;;;;;;962799;145;27430;-75
2022/04/08 03:02:53;;;;;;;1.33;0.83;;;10.60;59.70;;;;;;961533;148;28200;-72
2022/04/08 03:05:20;;;;;;;1.23;1.00;;;10.60;59.90;;;;;;973812;144;27350;-73
2022/04/08 03:07:47;;;;;;;2.27;1.07;;;10.60;59.80;;;;;;962168;146;27337;-73
2022/04/08 03:10:13;;;;;;;1.13;1.03;;;10.50;59.90;;;;;;978766;143;27320;-74
2022/04/08 03:12:40;;;;;;;1.03;0.80;;;10.50;60.00;;;;;;980919;143;27405;-73
2022/04/08 03:15:06;;;;;;;2.17;0.93;;;10.50;60.20;;;;;;981628;143;27369;-74
2022/04/08 03:17:33;;;;;;;1.97;0.90;;;10.50;60.40;;;;;;977981;143;27331;-73
2022/04/08 03:19:59;;;;;;;0.67;0.67;;;10.50;60.50;;;;;;982789;143;27296;-74
2022/04/08 03:22:26;;;;;;;0.90;0.60;;;10.40;60.80;;;;;;961276;146;27386;-74
2022/04/08 03:24:54;;;;;;;0.60;0.60;;;10.40;60.80;;;;;;967069;146;27377;-73
2022/04/08 03:27:19;;;;;;;1.83;0.80;;;10.40;61.00;;;;;;961369;146;27337;-73
2022/04/08 03:29:48;;;;;;;1.03;0.60;;;10.30;60.90;;;;;;962071;146;27856;-72
2022/04/08 03:32:12;;;;;;;0.77;0.60;;;10.30;61.10;;;;;;978550;143;27391;-72
2022/04/08 03:34:39;;;;;;;0.40;0.40;;;10.30;61.50;;;;;;962641;145;27278;-73
2022/04/08 03:37:06;;;;;;;1.10;0.70;;;10.30;61.50;;;;;;964358;145;27429;-73
2022/04/08 03:39:32;;;;;;;0.63;0.63;;;10.30;61.40;;;;;;979237;143;27310;-72
2022/04/08 03:41:59;;;;;;;1.80;0.77;;;10.20;61.40;;;;;;958994;146;27276;-73
2022/04/08 03:44:25;;;;;;;0.97;0.43;;;10.20;61.50;;;;;;978199;143;27261;-73
2022/04/08 03:46:52;;;;;;;0.60;0.60;;;10.20;61.60;;;;;;976820;143;27349;-73
2022/04/08 03:49:21;;;;;;;0.60;0.60;;;10.20;62.30;;;;;;966325;146;27313;-75
2022/04/08 03:51:45;;;;;;;1.10;0.90;;;10.20;61.80;;;;;;966168;146;27323;-72
2022/04/08 03:54:12;;;;;;;0.83;0.53;;;10.20;61.90;;;;;;966405;146;27290;-73
2022/04/08 03:56:41;;;;;;;0.67;0.67;;;10.10;62.00;;;;;;982269;142;27237;-74
2022/04/08 03:59:05;;;;;;;1.43;0.60;;;10.10;62.20;;;;;;960155;145;27279;-76
2022/04/08 04:01:32;;;;;;;1.17;0.70;;;10.00;62.30;;;;;;983611;142;27435;-73
2022/04/08 04:03:58;;;;;;;0.60;0.60;;;10.00;62.40;;;;;;984388;142;28249;-73
2022/04/08 04:06:25;;;;;;;1.70;1.07;;;10.00;62.70;;;;;;986003;142;27385;-74
2022/04/08 04:08:51;;;;;;;1.07;0.93;;;9.90;62.90;;;;;;986979;143;27291;-73
2022/04/08 04:11:18;;;;;;;1.27;0.70;;;9.90;63.20;;;;;;984167;145;27356;-73
2022/04/08 04:13:44;;;;;;;0.77;0.70;;;9.80;63.50;;;;;;968743;146;27734;-73
2022/04/08 04:16:11;;;;;;;1.00;0.80;;;9.80;63.80;;;;;;983363;145;27326;-73
2022/04/08 04:18:38;;;;;;;0.70;0.70;;;9.80;64.30;;;;;;982599;145;27260;-73
2022/04/08 04:21:04;;;;;;;0.53;0.53;;;9.70;64.40;;;;;;967596;145;27419;-74
2022/04/08 04:23:33;;;;;;;0.80;0.80;;;9.70;64.20;;;;;;967772;145;27285;-74
2022/04/08 04:25:57;;;;;;;1.10;0.70;;;9.60;64.10;;;;;;968733;145;27373;-74
2022/04/08 04:28:24;;;;;;;0.53;0.53;;;9.60;64.00;;;;;;983068;145;27414;-73
2022/04/08 04:30:53;;;;;;;1.07;0.80;;;9.50;65.00;;;;;;983814;145;27417;-74
2022/04/08 04:33:17;;;;;;;0.60;0.60;;;9.50;64.30;;;;;;982542;145;27270;-74
2022/04/08 04:35:44;;;;;;;0.80;0.70;;;9.50;64.40;;;;;;984987;144;27319;-75
2022/04/08 04:38:10;;;;;;;1.53;0.87;;;9.50;64.50;;;;;;983707;144;27331;-74
2022/04/08 04:40:37;;;;;;;1.10;0.90;;;9.40;64.50;;;;;;983856;142;28000;-74
2022/04/08 04:43:03;;;;;;;0.63;0.63;;;9.40;64.50;;;;;;964996;147;27306;-74
2022/04/08 04:45:30;;;;;;;1.53;1.10;;;9.40;64.00;;;;;;978027;144;27270;-74
2022/04/08 04:47:57;;;;;;;3.67;2.40;;;9.40;65.00;;;;;;979492;145;27329;-76
2022/04/08 04:50:23;;;;;;;4.57;3.00;;;9.40;65.00;;;;;;966564;145;27301;-74
2022/04/08 04:52:50;;;;;;;2.43;2.10;;;9.40;65.00;;;;;;965817;147;27688;-74
2022/04/08 04:55:16;;;;;;;2.60;1.30;;;9.40;65.20;;;;;;965315;147;27317;-74
2022/04/08 04:57:43;;;;;;;0.80;0.80;;;9.50;65.30;;;;;;971532;145;27289;-74
2022/04/08 05:00:09;;;;;;;1.27;1.17;;;9.50;65.40;;;;;;971118;145;27340;-74
2022/04/08 05:02:36;;;;;;;1.00;0.87;;;9.50;66.00;;;;;;968249;145;27336;-75
2022/04/08 05:05:03;;;;;;;0.90;0.83;;;9.50;65.60;;;;;;962370;148;27474;-73
2022/04/08 05:07:30;;;;;;;1.37;0.80;;;9.50;65.80;;;;;;968427;145;27369;-75
2022/04/08 05:09:56;;;;;;;0.90;0.77;;;9.50;65.70;;;;;;960548;146;27314;-75
2022/04/08 05:12:22;;;;;;;0.70;0.70;;;9.50;65.60;;;;;;978994;143;27312;-75
2022/04/08 05:14:49;;;;;;;1.00;0.83;;;9.50;65.60;;;;;;963405;145;27437;-74
2022/04/08 05:17:16;;;;;;;0.90;0.83;;;9.60;65.70;;;;;;982015;143;28513;-73
2022/04/08 05:19:42;;;;;;;1.23;0.63;;;9.60;65.80;;;;;;978051;143;27299;-74
2022/04/08 05:22:09;;;;;;;1.13;0.93;;;9.60;65.60;;;;;;978291;143;27423;-76
2022/04/08 05:24:35;;;;;;;1.10;0.90;;;9.60;66.00;;;;;;979240;143;27267;-74
2022/04/08 05:27:02;;;;;;;1.13;0.80;;;9.60;65.90;;;;;;978866;143;27414;-74
2022/04/08 05:29:28;;;;;;;0.60;0.60;;;9.60;65.70;;;;;;980617;143;28383;-73
2022/04/08 05:31:56;;;;;;;1.03;0.80;;;9.60;65.80;;;;;;976856;143;27806;-74
2022/04/08 05:34:22;;;;;;;2.73;0.90;;;9.70;65.80;;;;;;981248;143;27226;-74
2022/04/08 05:36:48;;;;;;;1.00;0.80;;;9.70;65.90;;;;;;978103;143;27374;-74
2022/04/08 05:39:15;;;;;;;2.77;1.40;;;9.70;66.00;;;;;;977802;141;27435;-75
2022/04/08 05:41:41;;;;;;;1.83;1.00;;;9.70;66.00;;;;;;978062;143;27338;-74
2022/04/08 05:44:08;;;;;;;1.73;1.10;;;9.80;66.10;;;;;;977726;143;27228;-74
2022/04/08 05:46:35;;;;;;;0.83;0.83;;;9.80;66.10;;;;;;978032;143;27390;-73
2022/04/08 05:49:01;;;;;;;0.93;0.70;;;9.80;65.90;;;;;;964738;146;27287;-75
2022/04/08 05:51:28;;;;;;;0.80;0.80;;;9.80;65.90;;;;;;978280;143;27342;-74
2022/04/08 05:53:54;;;;;;;3.00;0.80;;;9.90;66.20;;;;;;979781;143;27262;-73
2022/04/08 05:56:21;;;;;;;2.10;1.20;;;9.90;66.30;;;;;;963293;146;27204;-74
2022/04/08 05:58:48;;;;;;;2.00;1.17;;;9.90;66.20;;;;;;970405;145;27356;-74
2022/04/08 06:01:14;;;;;;;1.10;0.80;;;10.00;66.20;;;;;;961885;146;27281;-74
2022/04/08 06:03:41;;;;;;;1.83;1.00;;;10.00;66.20;;;;;;977443;143;27412;-73
2022/04/08 06:06:07;;;;;;;1.33;0.93;;;10.00;66.20;;;;;;973163;145;27332;-75
2022/04/08 06:08:34;;;;;;;2.50;0.70;;;10.00;66.40;;;;;;963230;147;27334;-74
2022/04/08 06:11:00;;;;;;;1.30;0.87;;;10.10;66.50;;;;;;978385;145;27266;-74
2022/04/08 06:13:27;;;;;;;1.40;0.97;;;10.20;66.60;;;;;;965093;144;27287;-75
2022/04/08 06:15:54;;;;;;;0.93;0.93;;;10.20;66.80;;;;;;964258;147;27337;-74
2022/04/08 06:18:20;;;;;;;2.23;0.90;;;10.30;67.00;;;;;;984168;143;27298;-75
2022/04/08 06:20:47;;;;;;;0.80;0.80;;;10.30;67.00;;;;;;967078;145;27293;-75
2022/04/08 06:23:13;;;;;;;1.17;1.00;;;10.40;67.00;;;;;;983883;144;27282;-75
2022/04/08 06:25:40;;;;;;;1.83;0.87;;;10.50;67.10;;;;;;983338;145;27278;-75
2022/04/08 06:28:07;;;;;;;1.23;1.13;;;10.70;67.20;;;;;;983474;145;27321;-74
2022/04/08 06:30:33;;;;;;;2.20;1.13;;;10.80;67.40;;;;;;981512;145;27325;-74
2022/04/08 06:33:00;;;;;;;1.43;1.13;;;10.90;67.40;;;;;;983359;145;27401;-74
2022/04/08 06:35:26;;;;;;;2.33;1.30;;;11.00;67.30;;;;;;964077;144;27345;-74
2022/04/08 06:37:59;;;;;;;1.87;1.20;;;11.20;67.40;;;;;;967040;144;27323;-74
2022/04/08 06:40:26;;;;;;;2.07;0.90;;;11.30;67.10;;;;;;964923;147;27376;-75
2022/04/08 06:42:59;;;;;;;3.43;1.37;;;11.50;67.20;;;;;;964329;148;28053;-74
2022/04/08 06:45:19;;;;;;;2.77;1.20;;;11.60;67.20;;;;;;963511;145;27363;-74
2022/04/08 06:47:45;;;;;;;1.70;1.00;;;11.80;67.10;;;;;;966016;145;27338;-74
2022/04/08 06:50:12;;;;;;;1.67;1.13;;;12.00;67.00;;;;;;984085;145;27314;-75
2022/04/08 06:52:39;;;;;;;3.93;1.30;;;12.20;66.80;;;;;;968265;145;27324;-75
2022/04/08 06:55:05;;;;;;;2.43;1.23;;;12.30;66.50;;;;;;982606;145;27417;-74
2022/04/08 06:59:52;;;;;;;2.10;1.37;;;12.50;66.30;;;;;;972137;144;37213;-73
2022/04/08 07:02:19;;;;;;;2.50;1.07;;;12.80;65.90;;;;;;958797;146;27340;-75
2022/04/08 07:04:45;;;;;;;1.17;1.00;;;13.00;65.40;;;;;;959120;146;27373;-74
2022/04/08 07:07:12;;;;;;;2.83;0.93;;;13.20;65.90;;;;;;958885;148;27323;-75
2022/04/08 07:09:38;;;;;;;2.90;1.37;;;13.40;65.70;;;;;;958731;146;27248;-75
2022/04/08 07:12:05;;;;;;;2.17;1.10;;;13.60;65.30;;;;;;958149;146;27256;-75
2022/04/08 07:14:31;;;;;;;1.47;1.10;;;13.80;64.90;;;;;;959112;146;27351;-75
2022/04/08 07:16:58;;;;;;;3.97;1.60;;;14.00;64.60;;;;;;957704;148;27443;-74
2022/04/08 07:19:25;;;;;;;2.70;1.53;;;14.20;64.10;;;;;;957047;146;27363;-75
2022/04/08 07:21:51;;;;;;;3.87;1.60;;;14.30;63.50;;;;;;958994;146;27253;-74
2022/04/08 07:24:18;;;;;;;4.50;1.70;;;14.40;63.00;;;;;;959062;146;27383;-74
2022/04/08 07:26:44;;;;;;;4.97;2.07;;;14.50;62.50;;;;;;956650;148;27385;-74
2022/04/08 07:29:11;;;;;;;6.43;1.83;;;14.50;62.10;;;;;;957807;148;27343;-74
2022/04/08 07:31:38;;;;;;;5.83;1.83;;;14.50;61.60;;;;;;949154;146;27381;-74
2022/04/08 07:34:04;;;;;;;5.50;2.43;;;14.50;61.30;;;;;;939565;150;27353;-75
2022/04/08 07:36:31;;;;;;;3.77;1.60;;;14.50;61.30;;;;;;940507;150;27330;-75
2022/04/08 07:38:57;;;;;;;4.00;2.03;;;14.40;61.10;;;;;;940083;149;27359;-75
2022/04/08 07:41:24;;;;;;;4.47;2.07;;;14.40;60.90;;;;;;940531;150;27365;-75
2022/04/08 07:43:52;;;;;;;5.10;1.97;;;14.40;60.50;;;;;;940648;151;27376;-75
2022/04/08 07:46:17;;;;;;;5.67;1.97;;;14.30;60.40;;;;;;940820;150;27295;-74
2022/04/08 07:48:44;;;;;;;5.67;1.67;;;14.20;60.50;;;;;;941182;152;27331;-72
2022/04/08 07:51:10;;;;;;;3.50;1.53;;;14.20;61.20;;;;;;940309;149;27330;-76
2022/04/08 07:53:37;;;;;;;6.43;2.07;;;14.20;60.70;;;;;;941171;150;27485;-73
2022/04/08 07:56:03;;;;;;;5.10;2.60;;;14.10;60.70;;;;;;940740;152;27337;-74
2022/04/08 07:58:30;;;;;;;6.93;2.10;;;14.10;60.70;;;;;;939273;152;27408;-74
2022/04/08 08:00:57;;;;;;;4.57;1.63;;;14.00;60.50;;;;;;934782;151;27330;-74
2022/04/08 08:03:23;;;;;;;2.77;1.80;;;14.00;60.30;;;;;;934486;153;27402;-76
2022/04/08 08:05:52;;;;;;;4.97;2.17;;;14.00;60.30;;;;;;934735;152;27367;-74
2022/04/08 08:08:16;;;;;;;3.97;1.90;;;13.90;60.30;;;;;;933844;151;27365;-74
2022/04/08 08:10:43;;;;;;;7.47;2.10;;;13.80;60.50;;;;;;934388;151;27296;-75
2022/04/08 08:13:10;;;;;;;4.77;1.67;;;13.80;60.70;;;;;;934265;150;27444;-74
2022/04/08 08:15:41;;;;;;;7.80;2.43;;;13.80;61.00;;;;;;933796;151;27399;-74
2022/04/08 08:18:07;;;;;;;5.53;1.90;;;13.80;60.30;;;;;;934928;153;27371;-72
2022/04/08 08:20:32;;;;;;;6.00;2.07;;;13.90;61.20;;;;;;934375;151;27329;-73
2022/04/08 08:22:59;;;;;;;4.37;1.83;;;13.90;60.90;;;;;;935019;153;27357;-73
2022/04/08 08:25:25;;;;;;;5.10;2.03;;;13.90;60.80;;;;;;933530;153;27791;-73
2022/04/08 08:27:52;;;;;;;6.63;2.33;;;13.90;60.70;;;;;;935158;151;27308;-73
2022/04/08 08:30:19;;;;;;;4.20;2.30;;;13.90;60.50;;;;;;933416;151;27374;-73
2022/04/08 08:32:48;;;;;;;4.67;2.10;;;13.90;60.50;;;;;;934335;151;27322;-72
2022/04/08 08:35:14;;;;;;;4.43;2.23;;;13.90;60.30;;;;;;934572;152;27308;-73
2022/04/08 08:37:41;;;;;;;4.03;1.67;;;13.90;60.40;;;;;;934417;151;27369;-74
2022/04/08 08:40:08;;;;;;;4.07;1.80;;;13.90;60.30;;;;;;934030;151;27374;-73
2022/04/08 08:42:37;;;;;;;6.13;2.30;;;13.90;60.20;;;;;;934697;153;27387;-73
2022/04/08 08:45:06;;;;;;;6.57;2.67;;;13.80;60.20;;;;;;934367;152;27344;-74
2022/04/08 08:47:33;;;;;;;5.67;2.30;;;13.80;60.40;;;;;;934727;151;27318;-73
2022/04/08 08:50:00;;;;;;;5.67;2.07;;;13.80;60.60;;;;;;933479;151;27334;-73
2022/04/08 08:52:26;;;;;;;8.50;2.30;;;13.80;60.70;;;;;;934139;153;27381;-73
2022/04/08 08:54:54;;;;;;;7.03;2.00;;;13.80;60.80;;;;;;934234;151;27359;-72
2022/04/08 08:57:19;;;;;;;6.53;2.13;;;13.70;60.80;;;;;;934228;153;27304;-73
2022/04/08 08:59:46;;;;;;;6.73;2.10;;;13.70;61.00;;;;;;934371;151;27371;-73
2022/04/08 09:02:12;;;;;;;6.30;2.43;;;13.70;61.40;;;;;;934580;152;27405;-74
2022/04/08 09:04:42;;;;;;;6.30;2.43;;;13.70;61.50;;;;;;933921;153;27960;-72
2022/04/08 09:07:09;;;;;;;5.27;2.60;;;13.60;61.60;;;;;;935031;151;27459;-74
2022/04/08 09:09:35;;;;;;;5.40;2.80;;;13.60;61.90;;;;;;933098;153;27398;-72
2022/04/08 09:12:14;;;;;;;7.37;2.60;;;13.60;62.00;;;;;;934443;151;27268;-73
2022/04/08 09:14:49;;;;;;;6.20;2.30;;;13.60;62.40;;;;;;934960;153;27436;-74
2022/04/08 09:17:16;;;;;;;8.87;2.53;;;13.60;62.40;;;;;;934493;153;27374;-73
2022/04/08 09:19:42;;;;;;;6.77;2.50;;;13.60;62.50;;;;;;934097;152;27456;-72
2022/04/08 09:22:09;;;;;;;4.73;2.40;;;13.60;62.50;;;;;;933447;153;27350;-73
2022/04/08 09:24:36;;;;;;;6.57;2.97;;;13.60;62.50;;;;;;934871;153;27331;-73
2022/04/08 09:27:02;;;;;;;5.50;3.30;;;13.60;62.60;;;;;;935052;153;27431;-74
2022/04/08 09:29:29;;;;;;;5.57;2.30;;;13.60;62.40;;;;;;934418;151;27461;-73
2022/04/08 09:31:55;;;;;;;4.97;1.93;;;13.60;62.40;;;;;;934062;151;27831;-74
2022/04/08 09:34:22;;;;;;;5.40;1.97;;;13.60;62.50;;;;;;934556;153;27342;-74
2022/04/08 09:36:49;;;;;;;4.53;2.10;;;13.60;62.70;;;;;;933850;152;27296;-73
2022/04/08 09:39:16;;;;;;;5.60;2.23;;;13.60;62.60;;;;;;934806;153;27369;-73
2022/04/08 09:41:45;;;;;;;3.93;1.77;;;13.60;62.40;;;;;;934759;151;27457;-73
2022/04/08 09:44:11;;;;;;;2.90;1.87;;;13.60;62.50;;;;;;934051;151;27345;-72
2022/04/08 09:46:38;;;;;;;7.93;2.60;;;13.60;62.70;;;;;;934301;153;27268;-73
2022/04/08 09:49:04;;;;;;;3.00;2.27;;;13.60;62.70;;;;;;934754;153;27385;-72
2022/04/08 09:51:31;;;;;;;5.73;2.80;;;13.60;62.50;;;;;;933982;151;27366;-72
2022/04/08 09:53:58;;;;;;;3.27;1.97;;;13.60;62.40;;;;;;933173;151;27715;-72
2022/04/08 09:56:24;;;;;;;5.13;2.67;;;13.60;62.40;;;;;;933871;151;27653;-73
2022/04/08 09:58:56;;;;;;;7.63;3.50;;;13.60;62.40;;;;;;934232;151;27404;-74
2022/04/08 10:01:25;;;;;;;4.87;2.80;;;13.50;62.20;;;;;;948201;150;27383;-73
2022/04/08 10:03:49;;;;;;;6.00;2.90;;;13.50;62.20;;;;;;953487;147;27374;-72
2022/04/08 10:06:16;;;;;;;3.87;2.30;;;13.40;62.40;;;;;;953965;148;27343;-72
2022/04/08 10:08:43;;;;;;;4.13;2.40;;;13.40;62.60;;;;;;954125;150;27432;-73
2022/04/08 10:11:12;;;;;;;4.17;2.20;;;13.40;63.10;;;;;;953319;147;27289;-74
2022/04/08 10:13:47;;;;;;;7.23;2.07;;;13.40;63.40;;;;;;952332;150;27461;-72
2022/04/08 10:16:23;;;;;;;4.77;2.50;;;13.30;63.50;;;;;;952549;150;27432;-72
2022/04/08 10:18:50;;;;;;;4.53;1.87;;;13.30;63.20;;;;;;953340;147;27348;-73
2022/04/08 10:21:16;;;;;;;3.13;1.73;;;13.30;63.00;;;;;;953020;147;27403;-72
2022/04/08 10:23:51;;;;;;;3.73;2.03;;;13.20;63.20;;;;;;953427;150;27285;-72
2022/04/08 10:26:21;;;;;;;6.87;2.40;;;13.20;63.50;;;;;;953678;150;27367;-72
2022/04/08 10:28:47;;;;;;;4.03;2.50;;;13.10;63.70;;;;;;953853;150;27375;-73
2022/04/08 10:31:14;;;;;;;2.87;1.90;;;13.00;64.10;;;;;;952974;147;27344;-72
2022/04/08 10:33:52;;;;;;;3.90;2.00;;;12.90;64.00;;;;;;953998;150;27391;-72
2022/04/08 10:36:19;;;;;;;2.40;1.77;;;12.80;64.40;;;;;;954118;150;27312;-74
2022/04/08 10:38:46;;;;;;;3.40;2.00;;;12.70;63.90;;;;;;951755;150;27375;-72
2022/04/08 10:41:13;;;;;;;4.10;3.00;;;12.60;64.20;;;;;;953628;147;27332;-73
2022/04/08 10:43:42;;;;;;;5.23;2.43;;;12.50;64.30;;;;;;953806;150;27367;-72
2022/04/08 10:46:08;;;;;;;3.40;2.13;;;12.30;64.80;;;;;;953839;150;27414;-72
2022/04/08 10:48:35;;;;;;;1.70;1.60;;;12.30;65.40;;;;;;953999;150;27360;-73
2022/04/08 10:51:04;;;;;;;4.67;2.30;;;12.20;65.60;;;;;;953346;150;27359;-73
2022/04/08 10:53:31;;;;;;;4.83;1.93;;;12.10;66.00;;;;;;950731;150;27295;-72
2022/04/08 10:55:57;;;;;;;6.13;2.47;;;12.00;66.10;;;;;;953540;148;27367;-73
2022/04/08 10:58:30;;;;;;;3.10;2.10;;;12.00;66.40;;;;;;951583;150;27393;-73
2022/04/08 11:00:56;;;;;;;3.67;1.70;;;12.00;66.40;;;;;;948871;148;27432;-72
2022/04/08 11:03:29;;;;;;;3.93;1.83;;;11.90;66.40;;;;;;940867;152;28527;-73
2022/04/08 11:05:55;;;;;;;2.20;2.00;;;11.90;66.60;;;;;;940209;152;27760;-73
2022/04/08 11:08:25;;;;;;;3.40;1.90;;;11.80;66.80;;;;;;940826;152;27287;-73
2022/04/08 11:11:01;;;;;;;2.60;1.80;;;11.80;67.00;;;;;;939289;150;27298;-74
2022/04/08 11:13:27;;;;;;;4.07;1.90;;;11.80;67.10;;;;;;941197;150;27381;-72
2022/04/08 11:15:54;;;;;;;2.87;1.63;;;11.70;67.20;;;;;;941102;152;27378;-72
2022/04/08 11:18:20;;;;;;;2.40;1.57;;;11.70;68.00;;;;;;939786;152;27342;-73
2022/04/08 11:20:50;;;;;;;2.90;1.30;;;11.70;67.40;;;;;;933966;150;27334;-74
2022/04/08 11:23:25;;;;;;;1.83;1.20;;;11.70;68.30;;;;;;935103;151;27273;-72
2022/04/08 11:25:52;;;;;;;3.47;1.03;;;11.70;67.40;;;;;;939692;152;27403;-72
2022/04/08 11:28:18;;;;;;;1.40;1.30;;;11.60;67.40;;;;;;919084;156;27283;-72
2022/04/08 11:30:45;;;;;;;3.57;1.90;;;11.60;67.60;;;;;;932560;152;27437;-72
2022/04/08 11:33:14;;;;;;;4.20;1.60;;;11.60;67.90;;;;;;934753;152;27361;-73
2022/04/08 11:35:41;;;;;;;2.37;1.50;;;11.60;68.40;;;;;;925796;152;27381;-74
2022/04/08 11:38:16;;;;;;;1.73;1.50;;;11.50;67.70;;;;;;939750;150;27815;-72
2022/04/08 11:40:43;;;;;;;2.53;1.50;;;11.50;68.00;;;;;;939418;150;27364;-73
2022/04/08 11:43:15;;;;;;;2.23;1.37;;;11.40;68.00;;;;;;940397;151;27423;-74
2022/04/08 11:45:41;;;;;;;3.33;2.13;;;11.30;68.20;;;;;;936642;150;27306;-73
2022/04/08 11:48:08;;;;;;;2.87;1.23;;;11.30;68.30;;;;;;937055;150;27395;-74
2022/04/08 11:50:37;;;;;;;2.57;1.40;;;11.20;68.10;;;;;;940453;152;27294;-72
2022/04/08 11:53:01;;;;;;;3.47;1.20;;;11.10;68.40;;;;;;940461;150;27376;-73
2022/04/08 11:55:28;;;;;;;1.37;1.20;;;11.10;68.50;;;;;;937995;150;27364;-73
2022/04/08 11:57:55;;;;;;;1.33;1.13;;;11.00;68.60;;;;;;937045;153;27490;-73
2022/04/08 12:00:23;;;;;;;1.10;1.00;;;10.90;68.80;;;;;;940592;152;27301;-72
2022/04/08 12:02:50;;;;;;;1.73;1.17;;;10.90;69.10;;;;;;933202;150;27451;-73
2022/04/08 12:05:24;;;;;;;2.03;1.33;;;10.90;69.40;;;;;;923127;155;27444;-73
2022/04/08 12:07:46;;;;;;;4.27;3.03;;;10.90;69.60;;;;;;932807;151;27329;-72
2022/04/08 12:10:13;;;;;;;2.63;1.93;;;10.80;69.60;;;;;;935265;152;27349;-72
2022/04/08 12:12:39;;;;;;;2.80;2.13;;;10.80;69.70;;;;;;931247;152;27374;-73
2022/04/08 12:15:09;;;;;;;2.07;1.33;;;10.80;69.90;;;;;;933788;151;27808;-73
2022/04/08 12:17:38;;;;;;;1.73;1.20;;;10.80;70.20;;;;;;933412;153;27293;-72
2022/04/08 12:20:05;;;;;;;2.03;1.20;;;10.80;70.20;;;;;;933167;151;27413;-73
2022/04/08 12:22:31;;;;;;;2.27;1.20;;;10.80;70.50;;;;;;935832;150;27327;-72
2022/04/08 12:24:58;;;;;;;1.33;1.00;;;10.80;70.50;;;;;;930709;153;27409;-73
2022/04/08 12:27:25;;;;;;;1.80;1.10;;;10.80;70.70;;;;;;929452;152;27372;-72
2022/04/08 12:30:00;;;;;;;1.67;1.03;;;10.90;70.70;;;;;;922100;155;27317;-72
2022/04/08 12:32:33;;;;;;;1.87;1.30;;;10.90;70.90;;;;;;934511;151;27961;-73
2022/04/08 12:34:59;;;;;;;1.53;1.27;;;10.90;71.00;;;;;;929449;151;27355;-73
2022/04/08 12:37:27;;;;;;;1.93;1.30;;;10.90;70.80;;;;;;939264;151;27346;-72
2022/04/08 12:39:52;;;;;;;2.77;1.40;;;10.90;70.70;;;;;;936621;151;27453;-72
2022/04/08 12:42:19;;;;;;;1.80;1.20;;;10.90;70.90;;;;;;932244;151;27376;-72
2022/04/08 12:44:46;;;;;;;2.30;1.70;;;10.90;71.10;;;;;;932396;151;27332;-73
2022/04/08 12:47:12;;;;;;;1.90;1.03;;;11.00;71.10;;;;;;918572;153;27311;-72
2022/04/08 12:49:39;;;;;;;1.20;0.87;;;11.00;71.00;;;;;;925004;151;27280;-73